Time;durP1;ratioP1;P1;durP2;ratioP2;P2;SDS_P1;SDS_P2;PMS_P1;PMS_P2;Temp;Humidity;BMP_temperature;BMP_pressure;BME280_temperature;BME280_humidity;BME280_pressure;Samples;Min_cycle;Max_cycle;Signal;HPM_P1;HPM_P2
2022/03/12 00:02:20;;;;;;;;;;;9.00;16.60;;;;;;5095123;28;20313;-64
2022/03/12 00:04:47;;;;;;;;;;;9.00;15.60;;;;;;5095532;28;19932;-63
2022/03/12 00:07:16;;;;;;;;;;;9.00;15.90;;;;;;5096519;28;19928;-63
2022/03/12 00:09:43;;;;;;;;;;;8.90;15.20;;;;;;5095965;28;20044;-62
2022/03/12 00:12:11;;;;;;;;;;;9.00;16.20;;;;;;5095020;28;19969;-61
2022/03/12 00:14:37;;;;;;;;;;;9.00;16.90;;;;;;5095151;28;19930;-60
2022/03/12 00:17:05;;;;;;;;;;;9.00;16.50;;;;;;5096713;28;19924;-60
2022/03/12 00:19:32;;;;;;;;;;;9.10;16.30;;;;;;5097937;28;19924;-62
2022/03/12 00:22:03;;;;;;;;;;;9.10;16.60;;;;;;5096312;28;19977;-62
2022/03/12 00:24:30;;;;;;;;;;;9.10;16.30;;;;;;5095324;28;19932;-60
2022/03/12 00:27:00;;;;;;;;;;;9.10;17.20;;;;;;5094859;28;19927;-63
2022/03/12 00:29:26;;;;;;;;;;;9.10;16.70;;;;;;5094841;28;19924;-62
2022/03/12 00:31:54;;;;;;;;;;;9.10;17.10;;;;;;5094764;28;20394;-63
2022/03/12 00:34:20;;;;;;;;;;;9.10;16.90;;;;;;5094724;28;19967;-62
2022/03/12 00:36:47;;;;;;;;;;;9.10;17.40;;;;;;5094896;28;19924;-62
2022/03/12 00:39:16;;;;;;;;;;;9.10;17.40;;;;;;5094779;28;19928;-62
2022/03/12 00:41:43;;;;;;;;;;;9.20;17.60;;;;;;5094565;28;19969;-62
2022/03/12 00:44:12;;;;;;;;;;;9.10;29.30;;;;;;5094419;28;19931;-62
2022/03/12 00:46:39;;;;;;;;;;;9.10;17.40;;;;;;5094204;28;19924;-63
2022/03/12 00:49:05;;;;;;;;;;;9.10;16.90;;;;;;5094482;28;19924;-63
2022/03/12 00:51:32;;;;;;;;;;;9.10;16.90;;;;;;5094166;28;20439;-60
2022/03/12 00:53:58;;;;;;;;;;;9.10;29.40;;;;;;5094307;28;19924;-61
2022/03/12 00:56:26;;;;;;;;;;;9.10;17.30;;;;;;5093943;28;19977;-62
2022/03/12 00:58:52;;;;;;;;;;;9.00;16.00;;;;;;5094332;28;19982;-63
2022/03/12 01:01:19;;;;;;;;;;;9.00;17.30;;;;;;5094258;28;19969;-64
2022/03/12 01:03:46;;;;;;;;;;;9.00;16.70;;;;;;5094062;28;19931;-63
2022/03/12 01:06:14;;;;;;;;;;;9.00;16.60;;;;;;5093948;28;19997;-63
2022/03/12 01:08:40;;;;;;;;;;;9.00;16.10;;;;;;5094012;28;19969;-62
2022/03/12 01:11:08;;;;;;;;;;;9.00;16.10;;;;;;5093975;28;19928;-63
2022/03/12 01:13:36;;;;;;;;;;;8.90;16.50;;;;;;5093568;28;19928;-63
2022/03/12 01:16:03;;;;;;;;;;;8.90;16.50;;;;;;5093709;28;19928;-63
2022/03/12 01:18:30;;;;;;;;;;;8.90;16.10;;;;;;5094496;28;19931;-63
2022/03/12 01:21:07;;;;;;;;;;;8.90;16.30;;;;;;5094142;28;20404;-62
2022/03/12 01:23:33;;;;;;;;;;;8.80;15.80;;;;;;5094300;28;19928;-62
2022/03/12 01:25:59;;;;;;;;;;;8.70;16.30;;;;;;5093415;28;19928;-62
2022/03/12 01:28:26;;;;;;;;;;;8.80;15.50;;;;;;5094387;28;19931;-63
2022/03/12 01:30:55;;;;;;;;;;;8.80;16.10;;;;;;5093950;28;19931;-61
2022/03/12 01:33:21;;;;;;;;;;;8.80;15.10;;;;;;5093883;28;20019;-60
2022/03/12 01:35:48;;;;;;;;;;;8.70;15.30;;;;;;5093620;28;19924;-64
2022/03/12 01:38:14;;;;;;;;;;;8.70;16.00;;;;;;5093580;28;19924;-64
2022/03/12 01:40:41;;;;;;;;;;;8.60;14.90;;;;;;5095387;28;19931;-64
2022/03/12 01:43:07;;;;;;;;;;;8.60;15.90;;;;;;5093473;28;19924;-62
2022/03/12 01:45:36;;;;;;;;;;;8.60;15.60;;;;;;5093578;28;20364;-64
2022/03/12 01:48:05;;;;;;;;;;;8.60;14.90;;;;;;5092677;28;19928;-63
2022/03/12 01:50:32;;;;;;;;;;;8.60;15.00;;;;;;5093293;28;20019;-62
2022/03/12 01:53:00;;;;;;;;;;;8.60;14.90;;;;;;5092783;28;20018;-62
2022/03/12 01:55:30;;;;;;;;;;;8.60;15.40;;;;;;5093077;28;20378;-64
2022/03/12 01:57:57;;;;;;;;;;;8.50;14.40;;;;;;5092833;28;19944;-64
2022/03/12 02:00:24;;;;;;;;;;;8.50;14.40;;;;;;5093135;28;19928;-62
2022/03/12 02:02:54;;;;;;;;;;;8.50;15.00;;;;;;5093199;28;20030;-63
2022/03/12 02:05:27;;;;;;;;;;;8.40;14.00;;;;;;5092661;28;19969;-64
2022/03/12 02:07:53;;;;;;;;;;;8.40;14.50;;;;;;5092805;28;19973;-63
2022/03/12 02:10:20;;;;;;;;;;;8.40;14.10;;;;;;5092581;28;19923;-63
2022/03/12 02:12:47;;;;;;;;;;;8.30;14.60;;;;;;5092804;28;20283;-63
2022/03/12 02:15:15;;;;;;;;;;;8.30;13.60;;;;;;5093135;28;19932;-63
2022/03/12 02:17:41;;;;;;;;;;;8.30;15.00;;;;;;5092612;28;19924;-63
2022/03/12 02:20:08;;;;;;;;;;;8.30;13.80;;;;;;5092135;28;19981;-63
2022/03/12 02:22:36;;;;;;;;;;;8.30;13.90;;;;;;5092752;28;20349;-63
2022/03/12 02:25:04;;;;;;;;;;;8.30;13.90;;;;;;5092840;28;19968;-63
2022/03/12 02:27:32;;;;;;;;;;;8.30;14.80;;;;;;5092321;28;19924;-62
2022/03/12 02:29:59;;;;;;;;;;;8.30;15.00;;;;;;5092711;28;19924;-62
2022/03/12 02:32:26;;;;;;;;;;;8.30;15.20;;;;;;5092207;28;19924;-64
2022/03/12 02:34:53;;;;;;;;;;;8.30;14.70;;;;;;5092697;28;19924;-62
2022/03/12 02:37:28;;;;;;;;;;;8.30;15.00;;;;;;5092130;28;20352;-63
2022/03/12 02:39:54;;;;;;;;;;;8.30;14.80;;;;;;5092122;28;19931;-62
2022/03/12 02:42:23;;;;;;;;;;;8.30;14.50;;;;;;5092432;28;19977;-62
2022/03/12 02:44:50;;;;;;;;;;;8.30;15.00;;;;;;5091983;28;20449;-63
2022/03/12 02:47:20;;;;;;;;;;;8.20;15.10;;;;;;5092232;28;20023;-63
2022/03/12 02:49:48;;;;;;;;;;;8.20;14.80;;;;;;5092050;28;19975;-63
2022/03/12 02:52:15;;;;;;;;;;;8.30;14.90;;;;;;5092546;28;20301;-63
2022/03/12 02:54:42;;;;;;;;;;;8.30;15.60;;;;;;5092124;28;20301;-62
2022/03/12 02:57:08;;;;;;;;;;;8.30;15.00;;;;;;5091988;28;20011;-63
2022/03/12 02:59:36;;;;;;;;;;;8.30;15.00;;;;;;5092091;28;19976;-63
2022/03/12 03:02:07;;;;;;;;;;;8.20;15.80;;;;;;5092193;28;20415;-63
2022/03/12 03:04:35;;;;;;;;;;;8.20;15.20;;;;;;5092248;28;19969;-63
2022/03/12 03:07:02;;;;;;;;;;;8.20;15.60;;;;;;5091680;28;20358;-63
2022/03/12 03:09:29;;;;;;;;;;;8.20;15.50;;;;;;5092192;28;19931;-63
2022/03/12 03:11:56;;;;;;;;;;;8.10;15.90;;;;;;5091949;28;19924;-60
2022/03/12 03:14:26;;;;;;;;;;;8.10;15.20;;;;;;5092084;28;19966;-62
2022/03/12 03:16:54;;;;;;;;;;;8.20;15.70;;;;;;5091838;28;19930;-63
2022/03/12 03:19:24;;;;;;;;;;;8.20;15.40;;;;;;5091957;28;19932;-62
2022/03/12 03:21:51;;;;;;;;;;;8.20;15.50;;;;;;5091976;28;20295;-61
2022/03/12 03:24:17;;;;;;;;;;;8.20;15.50;;;;;;5091677;28;19924;-62
2022/03/12 03:26:51;;;;;;;;;;;8.20;15.70;;;;;;5092825;28;20019;-63
2022/03/12 03:29:19;;;;;;;;;;;8.20;16.10;;;;;;5093271;28;19967;-63
2022/03/12 03:31:46;;;;;;;;;;;8.10;15.90;;;;;;5094983;28;20397;-63
2022/03/12 03:34:14;;;;;;;;;;;8.10;16.10;;;;;;5095771;28;20348;-65
2022/03/12 03:36:41;;;;;;;;;;;8.00;16.10;;;;;;5095647;28;20279;-63
2022/03/12 03:39:08;;;;;;;;;;;8.10;16.10;;;;;;5096814;28;19924;-63
2022/03/12 03:41:34;;;;;;;;;;;8.00;16.30;;;;;;5097111;28;20343;-63
2022/03/12 03:44:01;;;;;;;;;;;8.00;16.00;;;;;;5096633;28;19924;-63
2022/03/12 03:46:27;;;;;;;;;;;8.00;16.70;;;;;;5096238;28;19924;-63
2022/03/12 03:48:54;;;;;;;;;;;8.00;28.40;;;;;;5095822;28;19969;-62
2022/03/12 03:51:22;;;;;;;;;;;7.90;16.90;;;;;;5095574;28;20446;-60
2022/03/12 03:53:49;;;;;;;;;;;8.00;16.70;;;;;;5095662;28;19931;-61
2022/03/12 03:56:16;;;;;;;;;;;7.90;17.00;;;;;;5095070;28;19950;-62
2022/03/12 03:58:42;;;;;;;;;;;7.90;17.60;;;;;;5095594;28;19977;-63
2022/03/12 04:01:11;;;;;;;;;;;8.00;18.30;;;;;;5095548;28;19924;-62
2022/03/12 04:03:38;;;;;;;;;;;8.00;18.20;;;;;;5095296;28;19963;-63
2022/03/12 04:06:05;;;;;;;;;;;8.00;19.00;;;;;;5094987;28;19930;-63
2022/03/12 04:08:34;;;;;;;;;;;7.90;18.40;;;;;;5095085;28;19931;-63
2022/03/12 04:11:04;;;;;;;;;;;8.00;18.70;;;;;;5095429;28;20274;-63
2022/03/12 04:13:31;;;;;;;;;;;7.90;18.50;;;;;;5095008;28;19975;-63
2022/03/12 04:15:58;;;;;;;;;;;7.90;18.00;;;;;;5095042;28;20011;-62
2022/03/12 04:18:25;;;;;;;;;;;7.90;18.20;;;;;;5094730;28;19964;-63
2022/03/12 04:20:52;;;;;;;;;;;7.90;18.20;;;;;;5095110;28;19924;-64
2022/03/12 04:23:21;;;;;;;;;;;7.80;18.10;;;;;;5094944;28;20390;-63
2022/03/12 04:25:49;;;;;;;;;;;7.90;17.80;;;;;;5095395;28;19950;-63
2022/03/12 04:28:16;;;;;;;;;;;7.90;19.10;;;;;;5094826;28;19960;-62
2022/03/12 04:30:42;;;;;;;;;;;7.90;18.80;;;;;;5094780;28;20374;-62
2022/03/12 04:33:10;;;;;;;;;;;7.90;19.00;;;;;;5094740;28;19978;-61
2022/03/12 04:35:37;;;;;;;;;;;8.00;18.70;;;;;;5094936;28;20370;-63
2022/03/12 04:38:05;;;;;;;;;;;8.00;19.30;;;;;;5095082;28;19928;-59
2022/03/12 04:40:31;;;;;;;;;;;8.00;20.50;;;;;;5094827;28;19928;-62
2022/03/12 04:42:59;;;;;;;;;;;8.00;20.20;;;;;;5094286;28;20374;-61
2022/03/12 04:45:27;;;;;;;;;;;8.00;20.10;;;;;;5094555;28;19928;-62
2022/03/12 04:47:54;;;;;;;;;;;8.00;20.00;;;;;;5093808;28;20328;-63
2022/03/12 04:50:21;;;;;;;;;;;7.90;20.40;;;;;;5094718;28;19931;-63
2022/03/12 04:52:49;;;;;;;;;;;7.90;20.40;;;;;;5094396;28;19924;-63
2022/03/12 04:55:16;;;;;;;;;;;7.90;20.90;;;;;;5094379;28;19931;-63
2022/03/12 04:57:43;;;;;;;;;;;7.90;20.70;;;;;;5093953;28;20378;-62
2022/03/12 05:00:15;;;;;;;;;;;7.90;20.40;;;;;;5094321;28;20398;-63
2022/03/12 05:02:41;;;;;;;;;;;7.90;20.60;;;;;;5094036;28;19975;-61
2022/03/12 05:05:11;;;;;;;;;;;8.00;21.20;;;;;;5094394;28;19928;-63
2022/03/12 05:07:38;;;;;;;;;;;7.90;20.90;;;;;;5093968;28;20344;-63
2022/03/12 05:10:08;;;;;;;;;;;7.90;20.70;;;;;;5093926;28;19928;-61
2022/03/12 05:12:36;;;;;;;;;;;7.90;21.70;;;;;;5094346;28;19928;-61
2022/03/12 05:15:02;;;;;;;;;;;7.90;21.70;;;;;;5093549;28;20461;-62
2022/03/12 05:17:32;;;;;;;;;;;7.90;21.40;;;;;;5093782;28;19931;-62
2022/03/12 05:19:58;;;;;;;;;;;7.80;21.60;;;;;;5093921;28;19931;-63
2022/03/12 05:22:25;;;;;;;;;;;7.90;22.00;;;;;;5093825;28;19985;-62
2022/03/12 05:24:51;;;;;;;;;;;7.90;22.80;;;;;;5093635;28;19924;-63
2022/03/12 05:27:18;;;;;;;;;;;7.90;23.30;;;;;;5093291;28;20263;-62
2022/03/12 05:29:47;;;;;;;;;;;7.90;22.70;;;;;;5093485;28;19932;-62
2022/03/12 05:32:13;;;;;;;;;;;7.90;22.90;;;;;;5093634;28;20504;-62
2022/03/12 05:34:42;;;;;;;;;;;7.80;22.90;;;;;;5093501;28;19924;-63
2022/03/12 05:37:09;;;;;;;;;;;7.80;23.90;;;;;;5092770;28;19932;-62
2022/03/12 05:39:36;;;;;;;;;;;7.80;23.60;;;;;;5093589;28;20301;-63
2022/03/12 05:42:03;;;;;;;;;;;7.80;23.10;;;;;;5092967;28;19969;-62
2022/03/12 05:44:30;;;;;;;;;;;7.80;23.90;;;;;;5093640;28;20015;-60
2022/03/12 05:46:57;;;;;;;;;;;7.80;24.30;;;;;;5093790;28;19928;-62
2022/03/12 05:49:23;;;;;;;;;;;7.80;24.60;;;;;;5092989;28;19924;-62
2022/03/12 05:51:51;;;;;;;;;;;7.80;24.50;;;;;;5093194;28;20311;-63
2022/03/12 05:54:18;;;;;;;;;;;7.80;24.60;;;;;;5092282;28;20348;-63
2022/03/12 05:56:45;;;;;;;;;;;7.70;24.20;;;;;;5092716;28;20352;-61
2022/03/12 05:59:12;;;;;;;;;;;7.60;24.60;;;;;;5092938;28;19928;-62
2022/03/12 06:01:38;;;;;;;;;;;7.60;24.30;;;;;;5093304;28;19924;-62
2022/03/12 06:04:05;;;;;;;;;;;7.50;25.00;;;;;;5093008;28;20313;-63
2022/03/12 06:06:35;;;;;;;;;;;7.60;25.20;;;;;;5092533;28;19931;-63
2022/03/12 06:09:07;;;;;;;;;;;7.50;25.80;;;;;;5093018;28;19924;-63
2022/03/12 06:11:36;;;;;;;;;;;7.50;25.20;;;;;;5093016;28;19928;-62
2022/03/12 06:14:03;;;;;;;;;;;7.50;26.40;;;;;;5093749;28;19924;-65
2022/03/12 06:16:31;;;;;;;;;;;7.40;25.50;;;;;;5092757;28;19924;-62
2022/03/12 06:18:58;;;;;;;;;;;7.30;26.10;;;;;;5092831;28;19924;-63
2022/03/12 06:21:25;;;;;;;;;;;7.40;26.90;;;;;;5092811;28;19936;-63
2022/03/12 06:23:54;;;;;;;;;;;7.40;28.00;;;;;;5092972;28;20356;-63
2022/03/12 06:26:22;;;;;;;;;;;7.40;28.90;;;;;;5092785;28;19971;-63
2022/03/12 06:28:48;;;;;;;;;;;7.30;28.40;;;;;;5092584;28;20362;-63
2022/03/12 06:31:15;;;;;;;;;;;7.30;28.50;;;;;;5093435;28;19931;-63
2022/03/12 06:33:42;;;;;;;;;;;7.30;28.60;;;;;;5093431;28;19932;-62
2022/03/12 06:36:12;;;;;;;;;;;7.30;29.60;;;;;;5093327;28;20016;-63
2022/03/12 06:38:39;;;;;;;;;;;7.30;30.50;;;;;;5092850;28;19978;-63
2022/03/12 06:41:06;;;;;;;;;;;7.30;30.90;;;;;;5093026;28;19924;-62
2022/03/12 06:43:35;;;;;;;;;;;7.30;32.20;;;;;;5092995;28;19949;-62
2022/03/12 06:46:03;;;;;;;;;;;7.40;38.40;;;;;;5093728;28;19931;-62
2022/03/12 06:48:31;;;;;;;;;;;7.40;35.30;;;;;;5093456;28;20341;-62
2022/03/12 06:50:58;;;;;;;;;;;7.50;37.20;;;;;;5093640;28;20007;-62
2022/03/12 06:53:24;;;;;;;;;;;7.50;37.70;;;;;;5093814;28;19950;-62
2022/03/12 06:55:52;;;;;;;;;;;7.60;39.30;;;;;;5093464;28;19931;-62
2022/03/12 06:58:19;;;;;;;;;;;7.60;41.10;;;;;;5093777;28;19930;-62
2022/03/12 07:00:47;;;;;;;;;;;7.60;42.40;;;;;;5093673;28;19931;-64
2022/03/12 07:03:13;;;;;;;;;;;7.70;42.80;;;;;;5093124;28;19977;-63
2022/03/12 07:05:40;;;;;;;;;;;7.70;45.50;;;;;;5095265;28;19947;-63
2022/03/12 07:08:06;;;;;;;;;;;7.80;46.20;;;;;;5096396;28;19928;-63
2022/03/12 07:10:33;;;;;;;;;;;8.00;48.50;;;;;;5096733;28;19924;-63
2022/03/12 07:13:00;;;;;;;;;;;8.00;49.70;;;;;;5096176;28;19928;-64
2022/03/12 07:15:26;;;;;;;;;;;8.10;50.50;;;;;;5096375;28;19932;-62
2022/03/12 07:17:55;;;;;;;;;;;8.20;52.60;;;;;;5095927;28;20348;-62
2022/03/12 07:20:22;;;;;;;;;;;8.30;53.40;;;;;;5096267;28;19974;-62
2022/03/12 07:22:49;;;;;;;;;;;8.40;54.50;;;;;;5096251;28;19924;-63
2022/03/12 07:25:17;;;;;;;;;;;8.40;56.40;;;;;;5096144;28;19924;-62
2022/03/12 07:27:44;;;;;;;;;;;8.40;58.10;;;;;;5095920;28;19924;-62
2022/03/12 07:30:13;;;;;;;;;;;8.50;61.30;;;;;;5096084;28;20357;-63
2022/03/12 07:32:42;;;;;;;;;;;8.50;64.70;;;;;;5096058;28;20263;-62
2022/03/12 07:35:11;;;;;;;;;;;8.60;66.30;;;;;;5095867;28;19924;-64
2022/03/12 07:37:38;;;;;;;;;;;8.60;68.00;;;;;;5095552;28;20007;-64
2022/03/12 07:40:06;;;;;;;;;;;8.60;71.40;;;;;;5095602;28;19950;-63
2022/03/12 07:42:33;;;;;;;;;;;8.70;73.80;;;;;;5096493;28;19924;-61
2022/03/12 07:44:59;;;;;;;;;;;8.80;75.00;;;;;;5096018;28;19931;-62
2022/03/12 07:47:26;;;;;;;;;;;8.80;78.00;;;;;;5095654;28;19924;-64
2022/03/12 07:49:53;;;;;;;;;;;8.90;81.00;;;;;;5095958;28;19924;-64
2022/03/12 07:52:21;;;;;;;;;;;8.90;80.60;;;;;;5095925;28;19925;-64
2022/03/12 07:54:48;;;;;;;;;;;8.90;87.20;;;;;;5096444;28;19924;-64
2022/03/12 07:57:15;;;;;;;;;;;9.10;88.10;;;;;;5095512;28;19924;-63
2022/03/12 07:59:42;;;;;;;;;;;9.30;88.30;;;;;;5095993;28;20322;-63
2022/03/12 08:02:08;;;;;;;;;;;9.50;90.40;;;;;;5096101;28;19924;-64
2022/03/12 08:04:35;;;;;;;;;;;9.50;91.70;;;;;;5095863;28;19932;-64
2022/03/12 08:07:02;;;;;;;;;;;9.60;91.70;;;;;;5095647;28;19947;-64
2022/03/12 08:09:30;;;;;;;;;;;9.60;92.30;;;;;;5095751;28;20019;-64
2022/03/12 08:11:57;;;;;;;;;;;9.60;93.50;;;;;;5095163;28;19981;-65
2022/03/12 08:14:24;;;;;;;;;;;9.80;93.70;;;;;;5095024;28;19928;-64
2022/03/12 08:16:52;;;;;;;;;;;9.90;93.80;;;;;;5094326;28;19986;-64
2022/03/12 08:19:19;;;;;;;;;;;10.00;94.40;;;;;;5095114;28;19971;-65
2022/03/12 08:21:46;;;;;;;;;;;10.10;94.60;;;;;;5095157;28;19977;-64
2022/03/12 08:24:15;;;;;;;;;;;10.10;94.60;;;;;;5095071;28;19924;-64
2022/03/12 08:26:43;;;;;;;;;;;10.10;95.40;;;;;;5094713;28;19928;-65
2022/03/12 08:29:10;;;;;;;;;;;10.20;96.40;;;;;;5095613;28;20018;-65
2022/03/12 08:31:37;;;;;;;;;;;10.30;97.40;;;;;;5095025;28;20011;-61
2022/03/12 08:34:04;;;;;;;;;;;10.50;98.30;;;;;;5094819;28;19928;-60
2022/03/12 08:36:30;;;;;;;;;;;10.50;98.20;;;;;;5094705;28;20346;-63
2022/03/12 08:38:57;;;;;;;;;;;10.60;99.30;;;;;;5095888;28;19928;-62
2022/03/12 08:41:24;;;;;;;;;;;10.70;98.80;;;;;;5096203;28;20038;-62
2022/03/12 08:43:53;;;;;;;;;;;10.70;98.70;;;;;;5095142;28;19971;-60
2022/03/12 08:46:19;;;;;;;;;;;10.70;99.90;;;;;;5094838;28;19924;-64
2022/03/12 08:48:46;;;;;;;;;;;10.70;99.80;;;;;;5094567;28;19924;-63
2022/03/12 08:51:14;;;;;;;;;;;10.80;99.90;;;;;;5094491;28;19924;-64
2022/03/12 08:53:40;;;;;;;;;;;10.90;99.90;;;;;;5094081;28;20449;-65
2022/03/12 08:56:08;;;;;;;;;;;10.90;99.90;;;;;;5094115;28;19924;-64
2022/03/12 08:58:36;;;;;;;;;;;10.90;99.90;;;;;;5094466;28;19977;-65
2022/03/12 09:01:06;;;;;;;;;;;11.00;99.90;;;;;;5094585;28;20006;-64
2022/03/12 09:03:33;;;;;;;;;;;11.10;99.90;;;;;;5094028;28;20362;-64
2022/03/12 09:05:59;;;;;;;;;;;11.20;99.90;;;;;;5093966;28;19924;-63
2022/03/12 09:08:26;;;;;;;;;;;11.30;99.90;;;;;;5094169;28;20364;-62
2022/03/12 09:10:53;;;;;;;;;;;11.20;99.90;;;;;;5094101;28;19924;-61
2022/03/12 09:13:19;;;;;;;;;;;11.30;99.90;;;;;;5094314;28;19924;-63
2022/03/12 09:15:46;;;;;;;;;;;11.20;99.90;;;;;;5093635;28;19928;-63
2022/03/12 09:18:15;;;;;;;;;;;11.30;99.90;;;;;;5093729;28;20306;-63
2022/03/12 09:20:45;;;;;;;;;;;11.60;99.90;;;;;;5093776;28;19928;-63
2022/03/12 09:23:12;;;;;;;;;;;11.70;99.90;;;;;;5094093;28;20287;-63
2022/03/12 09:25:39;;;;;;;;;;;11.90;99.90;;;;;;5093786;28;19986;-63
2022/03/12 09:28:06;;;;;;;;;;;11.90;99.90;;;;;;5092620;28;19969;-64
2022/03/12 09:30:33;;;;;;;;;;;11.70;99.90;;;;;;5093671;28;19924;-65
2022/03/12 09:33:00;;;;;;;;;;;11.70;99.90;;;;;;5093519;28;20348;-64
2022/03/12 09:35:28;;;;;;;;;;;11.70;99.90;;;;;;5093413;28;19928;-64
2022/03/12 09:37:55;;;;;;;;;;;11.90;99.90;;;;;;5093375;28;19924;-64
2022/03/12 09:40:21;;;;;;;;;;;11.90;99.90;;;;;;5093563;28;20442;-65
2022/03/12 09:42:48;;;;;;;;;;;12.00;99.90;;;;;;5093486;28;20301;-63
2022/03/12 09:45:14;;;;;;;;;;;12.10;99.90;;;;;;5093627;28;20378;-63
2022/03/12 09:47:41;;;;;;;;;;;12.20;99.90;;;;;;5093050;28;20036;-64
2022/03/12 09:50:08;;;;;;;;;;;12.20;99.90;;;;;;5093033;28;19935;-64
2022/03/12 09:52:36;;;;;;;;;;;12.30;99.90;;;;;;5093734;28;19924;-64
2022/03/12 09:55:03;;;;;;;;;;;12.50;99.90;;;;;;5092617;28;19924;-65
2022/03/12 09:57:30;;;;;;;;;;;12.70;99.90;;;;;;5092984;28;19928;-65
2022/03/12 09:59:57;;;;;;;;;;;12.80;99.90;;;;;;5093271;28;19935;-64
2022/03/12 10:02:23;;;;;;;;;;;12.60;99.90;;;;;;5092806;28;20020;-64
2022/03/12 10:04:50;;;;;;;;;;;12.60;99.90;;;;;;5092899;28;20671;-66
2022/03/12 10:07:17;;;;;;;;;;;12.70;99.90;;;;;;5092840;28;19924;-65
2022/03/12 10:09:44;;;;;;;;;;;12.80;99.90;;;;;;5093108;28;19969;-65
2022/03/12 10:12:11;;;;;;;;;;;13.00;99.90;;;;;;5092585;28;20029;-63
2022/03/12 10:14:38;;;;;;;;;;;13.10;99.90;;;;;;5093052;28;19924;-66
2022/03/12 10:17:05;;;;;;;;;;;13.20;99.90;;;;;;5092434;28;19947;-64
2022/03/12 10:19:37;;;;;;;;;;;12.70;99.90;;;;;;5094006;28;20018;-64
2022/03/12 10:22:04;;;;;;;;;;;12.30;99.90;;;;;;5093536;28;19924;-64
2022/03/12 10:24:31;;;;;;;;;;;12.40;99.90;;;;;;5092635;28;20018;-64
2022/03/12 10:26:59;;;;;;;;;;;12.50;99.90;;;;;;5092072;28;19981;-65
2022/03/12 10:29:26;;;;;;;;;;;12.80;99.90;;;;;;5093598;28;19924;-64
2022/03/12 10:31:52;;;;;;;;;;;13.00;99.90;;;;;;5095467;28;19937;-64
2022/03/12 10:34:21;;;;;;;;;;;13.00;99.90;;;;;;5093429;28;19986;-64
2022/03/12 10:36:48;;;;;;;;;;;13.10;99.90;;;;;;5092192;28;20386;-63
2022/03/12 10:39:15;;;;;;;;;;;13.30;99.90;;;;;;5092191;28;19924;-64
2022/03/12 10:41:42;;;;;;;;;;;13.40;99.90;;;;;;5092346;28;19924;-63
2022/03/12 10:44:11;;;;;;;;;;;13.30;99.90;;;;;;5092352;28;20356;-65
2022/03/12 10:46:40;;;;;;;;;;;13.50;99.90;;;;;;5092518;28;19934;-63
2022/03/12 10:49:08;;;;;;;;;;;13.60;99.90;;;;;;5092436;28;19928;-64
2022/03/12 10:51:37;;;;;;;;;;;13.80;99.90;;;;;;5091984;28;21387;-64
2022/03/12 10:54:05;;;;;;;;;;;13.80;99.90;;;;;;5092344;28;19924;-64
2022/03/12 10:56:42;;;;;;;;;;;13.80;99.90;;;;;;5091548;28;19954;-64
2022/03/12 10:59:15;;;;;;;;;;;14.00;99.90;;;;;;5092574;28;19930;-63
2022/03/12 11:01:48;;;;;;;;;;;14.10;99.90;;;;;;5092616;28;19973;-65
2022/03/12 11:04:19;;;;;;;;;;;14.00;99.90;;;;;;5081899;28;19924;-65
2022/03/12 11:06:46;;;;;;;;;;;14.10;99.90;;;;;;5091362;28;19924;-65
2022/03/12 11:09:18;;;;;;;;;;;14.20;99.90;;;;;;5092324;28;20394;-64
2022/03/12 11:11:46;;;;;;;;;;;14.10;99.90;;;;;;5092166;28;19924;-64
2022/03/12 11:14:18;;;;;;;;;;;14.10;99.90;;;;;;5091692;28;19928;-65
2022/03/12 11:16:50;;;;;;;;;;;14.20;99.90;;;;;;5091592;28;20302;-66
2022/03/12 11:19:17;;;;;;;;;;;14.30;99.90;;;;;;5091751;28;19924;-66
2022/03/12 11:21:50;;;;;;;;;;;14.10;99.90;;;;;;5091608;28;19924;-65
2022/03/12 11:24:17;;;;;;;;;;;14.20;99.90;;;;;;5091610;28;20015;-64
2022/03/12 11:26:45;;;;;;;;;;;14.20;99.90;;;;;;5091439;28;19924;-64
2022/03/12 11:29:13;;;;;;;;;;;14.20;99.90;;;;;;5091842;28;20370;-65
2022/03/12 11:31:46;;;;;;;;;;;14.20;99.90;;;;;;5091598;28;20321;-63
2022/03/12 11:34:19;;;;;;;;;;;14.20;99.90;;;;;;5091092;28;19924;-64
2022/03/12 11:36:45;;;;;;;;;;;14.20;99.90;;;;;;5090928;28;20342;-64
2022/03/12 11:39:16;;;;;;;;;;;13.90;99.90;;;;;;5091863;28;20327;-63
2022/03/12 11:42:00;;;;;;;;;;;14.00;99.90;;;;;;5091193;28;19977;-63
2022/03/12 11:44:27;;;;;;;;;;;14.00;99.90;;;;;;5091197;28;19932;-63
2022/03/12 11:46:56;;;;;;;;;;;14.20;99.90;;;;;;5091423;28;19935;-63
2022/03/12 11:49:22;;;;;;;;;;;14.20;99.90;;;;;;5091277;28;20387;-62
2022/03/12 11:51:49;;;;;;;;;;;14.00;99.90;;;;;;5092029;28;19925;-62
2022/03/12 11:54:15;;;;;;;;;;;14.00;99.90;;;;;;5094960;28;20336;-61
2022/03/12 11:56:42;;;;;;;;;;;14.20;99.90;;;;;;5094737;28;19970;-62
2022/03/12 11:59:08;;;;;;;;;;;14.10;99.90;;;;;;5094841;28;19990;-63
2022/03/12 12:01:37;;;;;;;;;;;14.30;99.90;;;;;;5095377;28;19928;-63
2022/03/12 12:04:07;;;;;;;;;;;14.30;99.90;;;;;;5095348;28;19924;-62
2022/03/12 12:06:34;;;;;;;;;;;14.20;99.90;;;;;;5094914;28;19924;-59
2022/03/12 12:09:01;;;;;;;;;;;14.10;99.90;;;;;;5095392;28;20518;-62
2022/03/12 12:11:31;;;;;;;;;;;14.10;99.90;;;;;;5095453;28;19928;-63
2022/03/12 12:13:58;;;;;;;;;;;14.10;99.90;;;;;;5094973;28;19932;-62
2022/03/12 12:16:25;;;;;;;;;;;14.00;99.90;;;;;;5094853;28;20027;-62
2022/03/12 12:18:52;;;;;;;;;;;14.10;99.90;;;;;;5094842;28;20023;-62
2022/03/12 12:21:20;;;;;;;;;;;14.10;99.90;;;;;;5094943;28;19950;-63
2022/03/12 12:23:47;;;;;;;;;;;14.20;99.90;;;;;;5094392;28;20275;-63
2022/03/12 12:26:14;;;;;;;;;;;14.30;99.90;;;;;;5095064;28;19971;-63
2022/03/12 12:28:48;;;;;;;;;;;14.30;99.90;;;;;;5093257;28;20043;-64
2022/03/12 12:31:18;;;;;;;;;;;14.50;99.90;;;;;;5095764;28;19924;-67
2022/03/12 12:33:44;;;;;;;;;;;14.50;99.90;;;;;;5093476;28;19931;-66
2022/03/12 12:36:13;;;;;;;;;;;14.50;99.90;;;;;;5092895;28;20165;-64
2022/03/12 12:39:01;;;;;;;;;;;14.50;99.90;;;;;;5092467;28;20435;-64
2022/03/12 12:41:35;;;;;;;;;;;14.60;99.90;;;;;;5094856;28;20283;-66
2022/03/12 12:44:06;;;;;;;;;;;14.30;99.90;;;;;;5094173;28;20372;-66
2022/03/12 12:46:32;;;;;;;;;;;14.20;99.90;;;;;;5094362;28;19924;-65
2022/03/12 12:49:01;;;;;;;;;;;14.40;99.90;;;;;;5094356;28;19928;-65
2022/03/12 12:51:29;;;;;;;;;;;14.50;99.90;;;;;;5094347;28;20337;-65
2022/03/12 12:54:02;;;;;;;;;;;14.60;99.90;;;;;;5094143;28;19954;-65
2022/03/12 12:56:29;;;;;;;;;;;14.40;99.90;;;;;;5093712;28;20014;-64
2022/03/12 12:59:19;;;;;;;;;;;14.30;99.90;;;;;;5094061;28;19927;-65
2022/03/12 13:01:49;;;;;;;;;;;14.30;99.90;;;;;;5075018;28;19924;-65
2022/03/12 13:04:16;;;;;;;;;;;14.40;99.90;;;;;;5092944;28;19931;-64
2022/03/12 13:06:45;;;;;;;;;;;14.30;99.90;;;;;;5093351;28;20444;-65
2022/03/12 13:09:16;;;;;;;;;;;14.40;99.90;;;;;;5093471;28;19977;-66
2022/03/12 13:11:50;;;;;;;;;;;14.50;99.90;;;;;;5093450;28;19924;-63
2022/03/12 13:14:18;;;;;;;;;;;14.50;99.90;;;;;;5093334;28;19928;-62
2022/03/12 13:16:48;;;;;;;;;;;14.40;99.90;;;;;;5093574;28;19977;-63
2022/03/12 13:19:27;;;;;;;;;;;14.30;99.90;;;;;;5093604;28;19978;-62
2022/03/12 13:21:56;;;;;;;;;;;14.30;99.90;;;;;;5093399;28;19924;-62
2022/03/12 13:24:24;;;;;;;;;;;14.30;99.90;;;;;;5092979;28;19931;-62
2022/03/12 13:26:51;;;;;;;;;;;14.20;99.90;;;;;;5092576;28;20377;-63
2022/03/12 13:29:21;;;;;;;;;;;14.10;99.90;;;;;;5093415;28;20014;-63
2022/03/12 13:31:48;;;;;;;;;;;14.20;99.90;;;;;;5093285;28;19977;-62
2022/03/12 13:34:15;;;;;;;;;;;14.20;99.90;;;;;;5092921;28;19924;-63
2022/03/12 13:36:45;;;;;;;;;;;14.20;99.90;;;;;;5092665;28;20439;-63
2022/03/12 13:39:13;;;;;;;;;;;14.20;99.90;;;;;;5092813;28;19924;-62
2022/03/12 13:41:42;;;;;;;;;;;14.30;99.90;;;;;;5093267;28;20027;-63
2022/03/12 13:44:09;;;;;;;;;;;14.20;99.90;;;;;;5092679;28;19985;-63
2022/03/12 13:46:36;;;;;;;;;;;14.20;99.90;;;;;;5092787;28;19977;-62
2022/03/12 13:49:04;;;;;;;;;;;14.20;99.90;;;;;;5093556;28;19977;-62
2022/03/12 13:51:31;;;;;;;;;;;14.30;99.90;;;;;;5093437;28;20306;-62
2022/03/12 13:53:59;;;;;;;;;;;14.50;99.90;;;;;;5092559;28;19928;-63
2022/03/12 13:56:28;;;;;;;;;;;14.60;99.90;;;;;;5092284;28;19969;-63
2022/03/12 13:59:00;;;;;;;;;;;14.70;99.90;;;;;;5093187;28;20014;-62
2022/03/12 14:01:31;;;;;;;;;;;14.70;99.90;;;;;;5093270;28;20019;-62
2022/03/12 14:03:58;;;;;;;;;;;14.60;99.90;;;;;;5092978;28;20143;-62
2022/03/12 14:06:31;;;;;;;;;;;14.60;99.90;;;;;;5092685;28;20255;-60
2022/03/12 14:08:59;;;;;;;;;;;14.70;99.90;;;;;;5092729;28;19930;-62
2022/03/12 14:11:36;;;;;;;;;;;14.40;99.90;;;;;;5092131;28;19924;-60
2022/03/12 14:14:07;;;;;;;;;;;14.50;99.90;;;;;;5092166;28;19924;-62
2022/03/12 14:16:36;;;;;;;;;;;14.50;99.90;;;;;;5091552;28;20023;-64
2022/03/12 14:19:05;;;;;;;;;;;14.50;99.90;;;;;;5092615;28;19931;-62
2022/03/12 14:21:35;;;;;;;;;;;14.40;99.90;;;;;;5092672;28;19928;-62
2022/03/12 14:24:07;;;;;;;;;;;14.30;99.90;;;;;;5092098;28;19931;-63
2022/03/12 14:26:42;;;;;;;;;;;14.20;99.90;;;;;;5092059;28;19977;-63
2022/03/12 14:29:11;;;;;;;;;;;14.20;99.90;;;;;;5091845;28;19930;-63